createdAt,value
2019-05-11T00:02:02.458Z,14.40
2019-05-11T00:04:31.411Z,14.40
2019-05-11T00:07:00.405Z,14.30
2019-05-11T00:09:29.351Z,14.40
2019-05-11T00:11:58.280Z,14.30
2019-05-11T00:14:27.203Z,14.30
2019-05-11T00:16:56.155Z,14.30
2019-05-11T00:19:25.122Z,14.30
2019-05-11T00:21:54.125Z,14.30
2019-05-11T00:24:23.091Z,14.20
2019-05-11T00:26:51.997Z,14.20
2019-05-11T00:29:21.093Z,14.20
2019-05-11T00:31:50.146Z,14.30
2019-05-11T00:34:19.069Z,14.30
2019-05-11T00:36:48.007Z,14.20
2019-05-11T00:39:16.899Z,14.20
2019-05-11T00:41:45.901Z,14.20
2019-05-11T00:44:14.842Z,14.20
2019-05-11T00:46:43.835Z,14.10
2019-05-11T00:49:12.774Z,14.10
2019-05-11T00:51:41.731Z,14.00
2019-05-11T00:54:10.710Z,14.10
2019-05-11T00:56:39.650Z,14.00
2019-05-11T00:59:20.891Z,14.00
2019-05-11T01:01:39.119Z,14.00
2019-05-11T01:04:08.041Z,14.00
2019-05-11T01:06:36.981Z,14.00
2019-05-11T01:09:07.239Z,13.90
2019-05-11T01:11:36.246Z,13.90
2019-05-11T01:14:05.451Z,13.90
2019-05-11T01:16:34.385Z,13.90
2019-05-11T01:19:03.389Z,13.90
2019-05-11T01:21:32.291Z,13.90
2019-05-11T01:24:01.225Z,13.80
2019-05-11T01:26:30.152Z,13.80
2019-05-11T01:28:59.955Z,13.80
2019-05-11T01:31:30.135Z,13.80
2019-05-11T01:33:59.046Z,13.90
2019-05-11T01:36:28.042Z,13.90
2019-05-11T01:38:56.974Z,13.90
2019-05-11T01:41:25.830Z,13.80
2019-05-11T01:43:54.783Z,13.80
2019-05-11T01:46:23.731Z,13.80
2019-05-11T01:48:52.682Z,13.80
2019-05-11T01:51:21.589Z,13.90
2019-05-11T01:53:50.481Z,13.90
2019-05-11T01:56:19.354Z,14.00
2019-05-11T01:58:48.263Z,14.00
2019-05-11T02:01:17.140Z,14.00
2019-05-11T02:03:46.067Z,14.00
2019-05-11T02:06:15.066Z,14.00
2019-05-11T02:08:43.991Z,14.10
2019-05-11T02:11:15.998Z,14.00
2019-05-11T02:13:43.429Z,13.90
2019-05-11T02:16:12.265Z,13.80
2019-05-11T02:18:41.135Z,13.90
2019-05-11T02:21:10.065Z,13.80
2019-05-11T02:23:38.939Z,13.70
2019-05-11T02:26:07.962Z,13.70
2019-05-11T02:28:36.855Z,13.70
2019-05-11T02:31:05.770Z,13.60
2019-05-11T02:33:34.609Z,13.60
2019-05-11T02:36:03.603Z,13.60
2019-05-11T02:38:32.441Z,13.70
2019-05-11T02:41:01.456Z,13.70
2019-05-11T02:43:30.408Z,13.60
2019-05-11T02:45:59.414Z,13.60
2019-05-11T02:48:28.442Z,13.60
2019-05-11T02:50:58.291Z,13.60
2019-05-11T02:53:29.646Z,13.50
2019-05-11T02:55:59.652Z,13.50
2019-05-11T02:58:28.669Z,13.50
2019-05-11T03:00:57.533Z,13.50
2019-05-11T03:03:26.490Z,13.50
2019-05-11T03:05:55.390Z,13.60
2019-05-11T03:08:24.600Z,13.70
2019-05-11T03:10:53.524Z,13.70
2019-05-11T03:13:22.567Z,13.70
2019-05-11T03:15:51.593Z,13.70
2019-05-11T03:18:20.528Z,13.70
2019-05-11T03:20:49.539Z,13.60
2019-05-11T03:23:18.582Z,13.60
2019-05-11T03:25:47.681Z,13.50
2019-05-11T03:28:16.599Z,13.40
2019-05-11T03:30:45.566Z,13.40
2019-05-11T03:33:14.483Z,13.40
2019-05-11T03:35:43.432Z,13.40
2019-05-11T03:38:12.349Z,13.30
2019-05-11T03:40:41.339Z,13.40
2019-05-11T03:43:10.278Z,13.30
2019-05-11T03:45:39.214Z,13.30
2019-05-11T03:48:08.552Z,13.30
2019-05-11T03:50:37.500Z,13.30
2019-05-11T03:53:06.358Z,13.30
2019-05-11T03:55:35.225Z,13.30
2019-05-11T03:58:04.237Z,13.30
2019-05-11T04:00:33.246Z,13.40
2019-05-11T04:03:02.092Z,13.40
2019-05-11T04:05:31.010Z,13.50
2019-05-11T04:07:59.927Z,13.50
2019-05-11T04:10:29.020Z,13.50
2019-05-11T04:12:57.963Z,13.50
2019-05-11T04:15:26.921Z,13.40
2019-05-11T04:17:55.848Z,13.40
2019-05-11T04:20:24.794Z,13.50
2019-05-11T04:22:53.709Z,13.50
2019-05-11T04:25:22.937Z,13.40
2019-05-11T04:27:51.785Z,13.50
2019-05-11T04:30:20.887Z,13.50
2019-05-11T04:32:49.787Z,13.50
2019-05-11T04:35:18.809Z,13.50
2019-05-11T04:37:47.725Z,13.50
2019-05-11T04:40:16.704Z,13.60
2019-05-11T04:42:55.202Z,13.60
2019-05-11T04:45:16.159Z,13.60
2019-05-11T04:47:45.120Z,13.70
2019-05-11T04:50:14.111Z,13.70
2019-05-11T04:52:43.015Z,13.70
2019-05-11T04:55:12.007Z,13.70
2019-05-11T04:57:40.895Z,13.70
2019-05-11T05:00:10.023Z,13.70
2019-05-11T05:02:38.969Z,13.80
2019-05-11T05:05:08.463Z,13.80
2019-05-11T05:07:47.757Z,13.90
2019-05-11T05:10:08.037Z,13.90
2019-05-11T05:12:36.936Z,13.90
2019-05-11T05:15:06.021Z,13.90
2019-05-11T05:17:34.891Z,13.90
2019-05-11T05:20:04.623Z,13.90
2019-05-11T05:22:33.491Z,13.90
2019-05-11T05:25:02.315Z,13.90
2019-05-11T05:27:31.204Z,13.90
2019-05-11T05:30:00.114Z,14.00
2019-05-11T05:32:29.041Z,14.10
2019-05-11T05:34:57.954Z,14.20
2019-05-11T05:37:26.794Z,14.30
2019-05-11T05:39:55.791Z,14.40
2019-05-11T05:42:24.606Z,14.50
2019-05-11T05:44:53.557Z,14.60
2019-05-11T05:47:22.457Z,14.60
2019-05-11T05:49:51.333Z,14.70
2019-05-11T05:52:20.162Z,14.90
2019-05-11T05:54:49.037Z,15.10
2019-05-11T05:57:18.360Z,15.40
2019-05-11T05:59:47.236Z,15.60
2019-05-11T06:02:16.094Z,15.80
2019-05-11T06:04:44.905Z,16.00
2019-05-11T06:07:14.062Z,16.10
2019-05-11T06:09:42.894Z,16.20
2019-05-11T06:12:11.801Z,16.20
2019-05-11T06:14:40.656Z,16.20
2019-05-11T06:17:09.541Z,16.20
2019-05-11T06:19:38.591Z,16.40
2019-05-11T06:22:07.494Z,16.60
2019-05-11T06:24:36.382Z,16.60
2019-05-11T06:27:05.289Z,16.60
2019-05-11T06:29:34.174Z,16.60
2019-05-11T06:32:03.179Z,16.80
2019-05-11T06:34:32.045Z,16.90
2019-05-11T06:37:01.007Z,17.10
2019-05-11T06:39:29.928Z,17.20
2019-05-11T06:41:58.893Z,17.50
2019-05-11T06:44:27.743Z,17.80
2019-05-11T06:46:56.661Z,18.20
2019-05-11T06:49:25.489Z,18.40
2019-05-11T06:51:54.353Z,18.60
2019-05-11T06:54:23.320Z,18.80
2019-05-11T06:56:52.221Z,19.00
2019-05-11T06:59:21.106Z,19.20
2019-05-11T07:01:49.986Z,19.40
2019-05-11T07:04:18.941Z,19.50
2019-05-11T07:06:47.843Z,19.60
2019-05-11T07:09:16.790Z,19.70
2019-05-11T07:11:45.598Z,19.70
2019-05-11T07:14:20.584Z,19.80
2019-05-11T07:16:45.211Z,19.90
2019-05-11T07:19:14.122Z,19.90
2019-05-11T07:21:42.988Z,20.10
2019-05-11T07:24:11.893Z,20.30
2019-05-11T07:26:40.763Z,20.50
2019-05-11T07:29:09.715Z,20.60
2019-05-11T07:31:38.698Z,20.70
2019-05-11T07:34:08.185Z,20.80
2019-05-11T07:36:38.789Z,20.90
2019-05-11T07:39:08.425Z,21.00
2019-05-11T07:41:38.677Z,21.10
2019-05-11T07:44:10.025Z,21.20
2019-05-11T07:46:38.900Z,21.30
2019-05-11T07:49:08.763Z,21.40
2019-05-11T07:51:38.939Z,21.50
2019-05-11T07:54:08.553Z,21.60
2019-05-11T07:56:39.059Z,21.70
2019-05-11T07:59:08.238Z,21.70
2019-05-11T08:01:38.720Z,21.70
2019-05-11T08:04:07.935Z,21.80
2019-05-11T08:06:39.030Z,21.80
2019-05-11T08:09:08.462Z,21.80
2019-05-11T08:11:38.875Z,21.90
2019-05-11T08:14:08.224Z,22.00
2019-05-11T08:16:39.131Z,22.00
2019-05-11T08:19:10.634Z,21.90
2019-05-11T08:21:38.944Z,22.00
2019-05-11T08:24:09.190Z,22.10
2019-05-11T08:26:38.750Z,22.20
2019-05-11T08:29:08.210Z,22.20
2019-05-11T08:31:38.434Z,22.20
2019-05-11T08:34:08.901Z,22.00
2019-05-11T08:36:38.350Z,21.80
2019-05-11T08:39:07.912Z,21.60
2019-05-11T08:41:38.454Z,21.70
2019-05-11T08:44:08.969Z,21.70
2019-05-11T08:46:38.781Z,21.90
2019-05-11T08:49:08.796Z,22.10
2019-05-11T08:51:38.741Z,22.20
2019-05-11T08:54:09.059Z,22.10
2019-05-11T08:56:38.374Z,22.10
2019-05-11T08:59:08.226Z,22.10
2019-05-11T09:01:39.262Z,22.30
2019-05-11T09:04:09.049Z,22.20
2019-05-11T09:06:38.216Z,22.10
2019-05-11T09:09:08.899Z,22.00
2019-05-11T09:11:38.916Z,22.00
2019-05-11T09:14:08.455Z,21.90
2019-05-11T09:16:38.378Z,21.90
2019-05-11T09:19:08.744Z,21.90
2019-05-11T09:21:38.454Z,21.90
2019-05-11T09:24:08.500Z,22.00
2019-05-11T09:26:38.837Z,21.90
2019-05-11T09:29:08.647Z,21.90
2019-05-11T09:31:38.342Z,21.90
2019-05-11T09:34:09.061Z,22.00
2019-05-11T09:36:38.855Z,22.10
2019-05-11T09:39:08.695Z,22.10
2019-05-11T09:41:38.381Z,22.00
2019-05-11T09:44:08.935Z,21.70
2019-05-11T09:46:38.600Z,21.80
2019-05-11T09:49:08.155Z,21.90
2019-05-11T09:51:38.078Z,22.10
2019-05-11T09:54:08.037Z,22.10
2019-05-11T09:56:38.233Z,22.30
2019-05-11T09:59:08.876Z,22.50
2019-05-11T10:01:38.127Z,22.70
2019-05-11T10:04:08.944Z,23.00
2019-05-11T10:06:38.785Z,23.10
2019-05-11T10:09:08.880Z,23.20
2019-05-11T10:11:39.857Z,23.00
2019-05-11T10:14:08.608Z,22.70
2019-05-11T10:16:38.612Z,22.70
2019-05-11T10:19:08.599Z,23.30
2019-05-11T10:21:38.467Z,23.30
2019-05-11T10:24:08.496Z,24.00
2019-05-11T10:26:38.436Z,24.60
2019-05-11T10:29:07.988Z,24.70
2019-05-11T10:31:38.603Z,23.90
2019-05-11T10:34:08.672Z,23.10
2019-05-11T10:36:38.556Z,22.70
2019-05-11T10:39:09.053Z,22.40
2019-05-11T10:41:38.752Z,22.10
2019-05-11T10:44:08.309Z,21.90
2019-05-11T10:46:38.170Z,21.70
2019-05-11T10:49:08.066Z,21.50
2019-05-11T10:51:38.388Z,21.30
2019-05-11T10:54:08.640Z,21.20
2019-05-11T10:56:38.849Z,21.10
2019-05-11T10:59:08.160Z,21.00
2019-05-11T11:01:38.047Z,20.90
2019-05-11T11:04:08.022Z,20.80
2019-05-11T11:06:38.710Z,20.70
2019-05-11T11:09:09.088Z,20.60
2019-05-11T11:11:38.405Z,20.50
2019-05-11T11:14:08.679Z,20.50
2019-05-11T11:16:42.023Z,20.40
2019-05-11T11:19:08.368Z,20.40
2019-05-11T11:21:38.304Z,20.30
2019-05-11T11:24:07.714Z,20.30
2019-05-11T11:26:37.987Z,20.20
2019-05-11T11:29:08.591Z,20.20
2019-05-11T11:31:38.141Z,20.10
2019-05-11T11:34:08.237Z,20.10
2019-05-11T11:36:37.709Z,20.00
2019-05-11T11:39:08.583Z,20.10
2019-05-11T11:41:38.061Z,20.00
2019-05-11T11:44:07.902Z,20.00
2019-05-11T11:46:51.241Z,20.00
2019-05-11T11:49:08.391Z,19.90
2019-05-11T11:51:37.850Z,19.90
2019-05-11T11:54:08.759Z,19.90
2019-05-11T11:56:38.159Z,19.80
2019-05-11T11:59:08.538Z,19.80
2019-05-11T12:01:38.383Z,19.80
2019-05-11T12:04:08.196Z,19.70
2019-05-11T12:06:38.670Z,19.70
2019-05-11T12:09:08.924Z,19.70
2019-05-11T12:11:38.400Z,19.70
2019-05-11T12:14:08.687Z,19.60
2019-05-11T12:16:38.764Z,19.70
2019-05-11T12:19:08.541Z,19.60
2019-05-11T12:21:38.064Z,19.60
2019-05-11T12:24:08.145Z,19.60
2019-05-11T12:26:38.838Z,19.60
2019-05-11T12:29:08.295Z,19.60
2019-05-11T12:31:37.920Z,19.60
2019-05-11T12:34:08.719Z,19.50
2019-05-11T12:36:38.823Z,19.50
2019-05-11T12:39:08.720Z,19.40
2019-05-11T12:41:38.746Z,19.50
2019-05-11T12:44:08.378Z,19.40
2019-05-11T12:46:39.561Z,19.40
2019-05-11T12:49:08.245Z,19.40
2019-05-11T12:51:38.265Z,19.40
2019-05-11T12:54:08.297Z,19.40
2019-05-11T12:56:38.269Z,19.40
2019-05-11T12:59:08.182Z,19.40
2019-05-11T13:01:38.181Z,19.40
2019-05-11T13:04:08.834Z,19.40
2019-05-11T13:06:38.491Z,19.40
2019-05-11T13:09:08.657Z,19.40
2019-05-11T13:11:37.945Z,19.30
2019-05-11T13:14:08.080Z,19.30
2019-05-11T13:16:37.830Z,19.30
2019-05-11T13:19:08.364Z,19.30
2019-05-11T13:21:38.247Z,19.30
2019-05-11T13:24:08.406Z,19.30
2019-05-11T13:26:38.049Z,19.30
2019-05-11T13:29:07.910Z,19.30
2019-05-11T13:31:38.408Z,19.20
2019-05-11T13:34:08.391Z,19.20
2019-05-11T13:36:38.347Z,19.20
2019-05-11T13:39:08.838Z,19.20
2019-05-11T13:41:38.453Z,19.30
2019-05-11T13:44:08.000Z,19.30
2019-05-11T13:46:38.864Z,19.30
2019-05-11T13:49:08.537Z,19.30
2019-05-11T13:51:38.763Z,19.20
2019-05-11T13:54:08.113Z,19.20
2019-05-11T13:56:37.962Z,19.20
2019-05-11T13:59:10.429Z,19.20
2019-05-11T14:01:39.381Z,19.20
2019-05-11T14:04:08.715Z,19.30
2019-05-11T14:06:38.030Z,19.30
2019-05-11T14:09:09.014Z,19.30
2019-05-11T14:11:39.086Z,19.30
2019-05-11T14:14:08.393Z,19.30
2019-05-11T14:16:37.826Z,19.30
2019-05-11T14:19:08.663Z,19.30
2019-05-11T14:21:38.461Z,19.30
2019-05-11T14:24:08.069Z,19.20
2019-05-11T14:26:38.611Z,19.10
2019-05-11T14:29:08.460Z,19.00
2019-05-11T14:31:38.586Z,19.00
2019-05-11T14:34:08.830Z,19.00
2019-05-11T14:36:38.830Z,18.90
2019-05-11T14:39:08.705Z,18.90
2019-05-11T14:41:38.313Z,18.80
2019-05-11T14:44:08.924Z,18.80
2019-05-11T14:46:38.570Z,18.80
2019-05-11T14:49:08.100Z,18.80
2019-05-11T14:51:39.149Z,18.80
2019-05-11T14:54:08.384Z,18.80
2019-05-11T14:56:38.219Z,18.80
2019-05-11T14:59:09.019Z,18.80
2019-05-11T15:01:38.470Z,18.80
2019-05-11T15:04:08.971Z,18.80
2019-05-11T15:06:38.659Z,18.80
2019-05-11T15:09:08.406Z,18.70
2019-05-11T15:11:38.849Z,18.70
2019-05-11T15:14:08.403Z,18.70
2019-05-11T15:16:38.335Z,18.70
2019-05-11T15:19:08.215Z,18.60
2019-05-11T15:21:38.644Z,18.60
2019-05-11T15:24:08.983Z,18.60
2019-05-11T15:26:38.317Z,18.60
2019-05-11T15:29:08.162Z,18.60
2019-05-11T15:31:38.140Z,18.60
2019-05-11T15:34:08.605Z,18.60
2019-05-11T15:36:38.751Z,18.60
2019-05-11T15:39:08.383Z,18.50
2019-05-11T15:41:38.857Z,18.50
2019-05-11T15:44:11.495Z,18.50
2019-05-11T15:46:39.024Z,18.50
2019-05-11T15:49:08.868Z,18.30
2019-05-11T15:51:41.057Z,18.30
2019-05-11T15:54:08.539Z,18.40
2019-05-11T15:56:38.505Z,18.30
2019-05-11T15:59:08.744Z,18.30
2019-05-11T16:01:40.937Z,18.40
2019-05-11T16:04:09.074Z,18.40
2019-05-11T16:06:38.242Z,18.40
2019-05-11T16:09:08.388Z,18.40
2019-05-11T16:11:38.741Z,18.30
2019-05-11T16:14:08.844Z,18.40
2019-05-11T16:16:39.122Z,18.30
2019-05-11T16:19:13.841Z,18.30
2019-05-11T16:21:39.135Z,18.30
2019-05-11T16:24:08.338Z,18.30
2019-05-11T16:26:37.307Z,18.20
2019-05-11T16:29:08.494Z,18.20
2019-05-11T16:31:37.859Z,18.10
2019-05-11T16:34:08.089Z,18.10
2019-05-11T16:36:38.963Z,18.00
2019-05-11T16:39:10.475Z,18.00
2019-05-11T16:41:39.293Z,18.00
2019-05-11T16:44:08.214Z,18.00
2019-05-11T16:46:38.863Z,18.00
2019-05-11T16:49:10.757Z,18.00
2019-05-11T16:51:38.854Z,17.90
2019-05-11T16:54:08.136Z,17.90
2019-05-11T16:56:38.289Z,17.90
2019-05-11T16:59:08.269Z,17.90
2019-05-11T17:01:38.074Z,17.90
2019-05-11T17:04:07.062Z,17.90
2019-05-11T17:06:38.318Z,17.90
2019-05-11T17:09:08.815Z,17.90
2019-05-11T17:11:38.408Z,17.70
2019-05-11T17:14:08.340Z,17.70
2019-05-11T17:16:38.574Z,17.70
2019-05-11T17:19:08.294Z,17.70
2019-05-11T17:21:38.108Z,17.70
2019-05-11T17:24:07.615Z,17.70
2019-05-11T17:26:38.530Z,17.70
2019-05-11T17:29:07.061Z,17.80
2019-05-11T17:31:38.023Z,17.80
2019-05-11T17:34:09.044Z,17.80
2019-05-11T17:36:37.529Z,17.80
2019-05-11T17:39:07.799Z,17.80
2019-05-11T17:41:38.683Z,17.80
2019-05-11T17:44:07.972Z,17.80
2019-05-11T17:46:38.476Z,17.80
2019-05-11T17:49:08.007Z,17.70
2019-05-11T17:51:37.910Z,17.60
2019-05-11T17:54:07.868Z,17.60
2019-05-11T17:56:38.762Z,17.60
2019-05-11T17:59:08.257Z,17.70
2019-05-11T18:01:37.346Z,17.60
2019-05-11T18:04:07.932Z,17.50
2019-05-11T18:06:38.526Z,17.40
2019-05-11T18:09:08.572Z,17.50
2019-05-11T18:11:38.246Z,17.50
2019-05-11T18:14:08.374Z,17.50
2019-05-11T18:16:37.519Z,17.40
2019-05-11T18:19:08.596Z,17.40
2019-05-11T18:21:38.708Z,17.40
2019-05-11T18:24:09.189Z,17.30
2019-05-11T18:26:38.443Z,17.30
2019-05-11T18:29:07.492Z,17.30
2019-05-11T18:31:38.388Z,17.30
2019-05-11T18:34:08.991Z,17.20
2019-05-11T18:36:38.151Z,17.30
2019-05-11T18:39:08.430Z,17.30
2019-05-11T18:41:39.061Z,17.30
2019-05-11T18:44:08.319Z,17.20
2019-05-11T18:46:38.832Z,17.10
2019-05-11T18:49:08.070Z,17.00
2019-05-11T18:51:37.807Z,17.00
2019-05-11T18:54:09.258Z,16.90
2019-05-11T18:56:38.383Z,16.90
2019-05-11T18:59:08.801Z,17.00
2019-05-11T19:01:38.179Z,17.00
2019-05-11T19:04:07.961Z,17.00
2019-05-11T19:06:37.875Z,16.90
2019-05-11T19:09:07.680Z,16.90
2019-05-11T19:11:38.331Z,16.90
2019-05-11T19:14:08.601Z,16.90
2019-05-11T19:16:39.009Z,16.80
2019-05-11T19:19:08.380Z,16.70
2019-05-11T19:21:37.411Z,16.70
2019-05-11T19:24:09.154Z,16.60
2019-05-11T19:26:36.983Z,16.70
2019-05-11T19:29:05.923Z,16.70
2019-05-11T19:31:35.015Z,16.80
2019-05-11T19:34:03.913Z,16.80
2019-05-11T19:36:32.858Z,16.80
2019-05-11T19:39:01.698Z,16.70
2019-05-11T19:41:30.629Z,16.60
2019-05-11T19:43:59.451Z,16.50
2019-05-11T19:46:28.310Z,16.50
2019-05-11T19:48:58.006Z,16.50
2019-05-11T19:51:28.937Z,16.50
2019-05-11T19:53:57.700Z,16.40
2019-05-11T19:56:28.850Z,16.40
2019-05-11T19:58:57.954Z,16.40
2019-05-11T20:01:27.871Z,16.40
2019-05-11T20:03:56.874Z,16.30
2019-05-11T20:06:27.919Z,16.10
2019-05-11T20:08:58.131Z,16.00
2019-05-11T20:11:27.886Z,16.10
2019-05-11T20:13:58.945Z,16.20
2019-05-11T20:16:27.665Z,16.10
2019-05-11T20:18:57.800Z,16.20
2019-05-11T20:21:28.837Z,16.10
2019-05-11T20:23:57.820Z,16.10
2019-05-11T20:26:28.600Z,16.00
2019-05-11T20:28:58.804Z,16.00
2019-05-11T20:31:28.058Z,16.00
2019-05-11T20:33:57.541Z,15.90
2019-05-11T20:36:26.454Z,15.90
2019-05-11T20:38:55.305Z,15.90
2019-05-11T20:41:24.212Z,15.90
2019-05-11T20:43:53.051Z,15.90
2019-05-11T20:46:21.938Z,15.90
2019-05-11T20:48:50.955Z,15.80
2019-05-11T20:51:33.137Z,15.80
2019-05-11T20:53:50.443Z,15.70
2019-05-11T20:56:19.258Z,15.80
2019-05-11T20:58:59.430Z,15.80
2019-05-11T21:01:28.867Z,15.70
2019-05-11T21:03:58.725Z,15.70
2019-05-11T21:06:29.463Z,15.70
2019-05-11T21:08:58.425Z,15.70
2019-05-11T21:11:27.342Z,15.70
2019-05-11T21:13:56.252Z,15.60
2019-05-11T21:16:25.095Z,15.60
2019-05-11T21:18:54.009Z,15.60
2019-05-11T21:21:22.922Z,15.60
2019-05-11T21:23:51.831Z,15.60
2019-05-11T21:26:20.748Z,15.60
2019-05-11T21:28:49.651Z,15.60
2019-05-11T21:31:18.803Z,15.50
2019-05-11T21:33:47.987Z,15.50
2019-05-11T21:36:18.035Z,15.60
2019-05-11T21:38:48.271Z,15.50
2019-05-11T21:41:17.551Z,15.60
2019-05-11T21:43:48.330Z,15.50
2019-05-11T21:46:18.018Z,15.50
2019-05-11T21:48:47.837Z,15.50
2019-05-11T21:51:18.089Z,15.50
2019-05-11T21:53:48.650Z,15.40
2019-05-11T21:56:18.779Z,15.40
2019-05-11T21:58:48.010Z,15.40
2019-05-11T22:01:20.104Z,15.40
2019-05-11T22:03:48.043Z,15.40
2019-05-11T22:06:17.117Z,15.40
2019-05-11T22:08:48.264Z,15.40
2019-05-11T22:11:17.951Z,15.40
2019-05-11T22:13:48.401Z,15.40
2019-05-11T22:16:17.670Z,15.40
2019-05-11T22:18:48.551Z,15.50
2019-05-11T22:21:18.749Z,15.40
2019-05-11T22:23:50.671Z,15.40
2019-05-11T22:26:18.761Z,15.30
2019-05-11T22:28:48.212Z,15.30
2019-05-11T22:31:18.262Z,15.30
2019-05-11T22:33:48.016Z,15.40
2019-05-11T22:36:17.252Z,15.30
2019-05-11T22:38:48.253Z,15.30
2019-05-11T22:41:18.091Z,15.30
2019-05-11T22:43:48.558Z,15.20
2019-05-11T22:46:17.894Z,15.20
2019-05-11T22:48:48.909Z,15.20
2019-05-11T22:51:18.323Z,15.20
2019-05-11T22:53:50.275Z,15.20
2019-05-11T22:56:20.148Z,15.10
2019-05-11T22:58:49.962Z,15.20
2019-05-11T23:01:19.250Z,15.10
2019-05-11T23:03:48.062Z,15.20
2019-05-11T23:06:18.059Z,15.20
2019-05-11T23:08:48.291Z,15.10
2019-05-11T23:11:18.039Z,15.10
2019-05-11T23:13:47.930Z,15.00
2019-05-11T23:16:17.923Z,14.90
2019-05-11T23:18:48.055Z,14.90
2019-05-11T23:21:17.308Z,14.80
2019-05-11T23:23:47.847Z,14.80
2019-05-11T23:26:17.793Z,14.80
2019-05-11T23:28:48.722Z,14.80
2019-05-11T23:31:17.638Z,14.80
2019-05-11T23:33:46.553Z,14.90
2019-05-11T23:36:15.486Z,14.90
2019-05-11T23:38:44.479Z,14.90
2019-05-11T23:41:24.309Z,14.90
2019-05-11T23:43:43.890Z,14.90
2019-05-11T23:46:12.704Z,14.80
2019-05-11T23:48:41.550Z,14.80
2019-05-11T23:51:10.479Z,14.80
2019-05-11T23:53:39.407Z,14.70
2019-05-11T23:56:08.414Z,14.80
2019-05-11T23:58:39.092Z,14.80
